sensor_id;sensor_type;location;lat;lon;timestamp;temperature;humidity
3017;DHT22;1518;52.408;13.060;2022-08-21T00:00:39;19.00;99.90
3017;DHT22;1518;52.408;13.060;2022-08-21T00:03:30;18.90;99.90
3017;DHT22;1518;52.408;13.060;2022-08-21T00:06:20;18.90;99.90
3017;DHT22;1518;52.408;13.060;2022-08-21T00:09:09;18.80;99.90
3017;DHT22;1518;52.408;13.060;2022-08-21T00:11:57;18.80;99.90
3017;DHT22;1518;52.408;13.060;2022-08-21T00:14:46;18.70;99.90
3017;DHT22;1518;52.408;13.060;2022-08-21T00:17:34;18.60;99.90
3017;DHT22;1518;52.408;13.060;2022-08-21T00:20:23;18.60;99.90
3017;DHT22;1518;52.408;13.060;2022-08-21T00:23:13;18.60;99.90
3017;DHT22;1518;52.408;13.060;2022-08-21T00:26:02;18.50;99.90
3017;DHT22;1518;52.408;13.060;2022-08-21T00:28:50;18.50;99.90
3017;DHT22;1518;52.408;13.060;2022-08-21T00:31:38;18.50;99.90
3017;DHT22;1518;52.408;13.060;2022-08-21T00:34:26;18.40;99.90
3017;DHT22;1518;52.408;13.060;2022-08-21T00:37:15;18.40;99.90
3017;DHT22;1518;52.408;13.060;2022-08-21T00:40:06;18.40;99.90
3017;DHT22;1518;52.408;13.060;2022-08-21T00:42:55;18.30;99.90
3017;DHT22;1518;52.408;13.060;2022-08-21T00:45:43;18.30;99.90
3017;DHT22;1518;52.408;13.060;2022-08-21T00:48:32;18.20;99.90
3017;DHT22;1518;52.408;13.060;2022-08-21T00:51:24;18.20;99.90
3017;DHT22;1518;52.408;13.060;2022-08-21T00:54:14;18.20;99.90
3017;DHT22;1518;52.408;13.060;2022-08-21T00:57:10;18.20;99.90
3017;DHT22;1518;52.408;13.060;2022-08-21T01:00:02;18.20;99.90
3017;DHT22;1518;52.408;13.060;2022-08-21T01:02:51;18.20;99.90
3017;DHT22;1518;52.408;13.060;2022-08-21T01:05:40;18.10;99.90
3017;DHT22;1518;52.408;13.060;2022-08-21T01:08:29;18.10;99.90
3017;DHT22;1518;52.408;13.060;2022-08-21T01:11:18;18.00;99.90
3017;DHT22;1518;52.408;13.060;2022-08-21T01:14:07;18.00;99.90
3017;DHT22;1518;52.408;13.060;2022-08-21T01:16:58;18.00;99.90
3017;DHT22;1518;52.408;13.060;2022-08-21T01:19:47;17.90;99.90
3017;DHT22;1518;52.408;13.060;2022-08-21T01:22:36;17.90;99.90
3017;DHT22;1518;52.408;13.060;2022-08-21T01:25:25;17.90;99.90
3017;DHT22;1518;52.408;13.060;2022-08-21T01:28:14;17.90;99.90
3017;DHT22;1518;52.408;13.060;2022-08-21T01:31:05;17.80;99.90
3017;DHT22;1518;52.408;13.060;2022-08-21T01:33:55;17.80;99.90
3017;DHT22;1518;52.408;13.060;2022-08-21T01:36:44;17.80;99.90
3017;DHT22;1518;52.408;13.060;2022-08-21T01:39:34;17.80;99.90
3017;DHT22;1518;52.408;13.060;2022-08-21T01:42:22;17.80;99.90
3017;DHT22;1518;52.408;13.060;2022-08-21T01:45:11;18.00;99.90
3017;DHT22;1518;52.408;13.060;2022-08-21T01:48:00;17.70;99.90
3017;DHT22;1518;52.408;13.060;2022-08-21T01:50:49;17.70;99.90
3017;DHT22;1518;52.408;13.060;2022-08-21T01:53:42;17.60;99.90
3017;DHT22;1518;52.408;13.060;2022-08-21T01:56:37;17.20;99.90
3017;DHT22;1518;52.408;13.060;2022-08-21T01:59:26;17.60;99.90
3017;DHT22;1518;52.408;13.060;2022-08-21T02:02:14;17.40;99.90
3017;DHT22;1518;52.408;13.060;2022-08-21T02:05:03;17.60;99.90
3017;DHT22;1518;52.408;13.060;2022-08-21T02:07:53;17.40;99.90
3017;DHT22;1518;52.408;13.060;2022-08-21T02:10:42;17.40;99.90
3017;DHT22;1518;52.408;13.060;2022-08-21T02:13:36;17.40;99.90
3017;DHT22;1518;52.408;13.060;2022-08-21T02:16:24;17.30;99.90
3017;DHT22;1518;52.408;13.060;2022-08-21T02:19:14;17.20;99.90
3017;DHT22;1518;52.408;13.060;2022-08-21T02:22:02;17.30;99.90
3017;DHT22;1518;52.408;13.060;2022-08-21T02:24:51;17.20;99.90
3017;DHT22;1518;52.408;13.060;2022-08-21T02:27:43;17.20;99.90
3017;DHT22;1518;52.408;13.060;2022-08-21T02:30:35;17.40;99.90
3017;DHT22;1518;52.408;13.060;2022-08-21T02:33:25;17.20;99.90
3017;DHT22;1518;52.408;13.060;2022-08-21T02:36:14;17.20;99.90
3017;DHT22;1518;52.408;13.060;2022-08-21T02:39:02;17.20;99.90
3017;DHT22;1518;52.408;13.060;2022-08-21T02:41:50;17.20;99.90
3017;DHT22;1518;52.408;13.060;2022-08-21T02:44:38;17.20;99.90
3017;DHT22;1518;52.408;13.060;2022-08-21T02:47:28;17.20;99.90
3017;DHT22;1518;52.408;13.060;2022-08-21T02:50:20;17.10;99.90
3017;DHT22;1518;52.408;13.060;2022-08-21T02:53:11;17.10;99.90
3017;DHT22;1518;52.408;13.060;2022-08-21T02:56:05;17.10;99.90
3017;DHT22;1518;52.408;13.060;2022-08-21T02:58:54;17.10;99.90
3017;DHT22;1518;52.408;13.060;2022-08-21T03:01:42;17.10;99.90
3017;DHT22;1518;52.408;13.060;2022-08-21T03:04:32;17.20;99.90
3017;DHT22;1518;52.408;13.060;2022-08-21T03:07:20;17.30;99.90
3017;DHT22;1518;52.408;13.060;2022-08-21T03:10:09;17.30;99.90
3017;DHT22;1518;52.408;13.060;2022-08-21T03:12:57;18.70;99.90
3017;DHT22;1518;52.408;13.060;2022-08-21T03:15:45;17.30;99.90
3017;DHT22;1518;52.408;13.060;2022-08-21T03:18:35;17.30;99.90
3017;DHT22;1518;52.408;13.060;2022-08-21T03:21:24;17.20;99.90
3017;DHT22;1518;52.408;13.060;2022-08-21T03:24:13;17.20;99.90
3017;DHT22;1518;52.408;13.060;2022-08-21T03:27:03;17.20;99.90
3017;DHT22;1518;52.408;13.060;2022-08-21T03:29:55;17.20;99.90
3017;DHT22;1518;52.408;13.060;2022-08-21T03:32:43;17.10;99.90
3017;DHT22;1518;52.408;13.060;2022-08-21T03:35:31;17.20;99.90
3017;DHT22;1518;52.408;13.060;2022-08-21T03:38:20;17.00;99.90
3017;DHT22;1518;52.408;13.060;2022-08-21T03:41:12;17.00;99.90
3017;DHT22;1518;52.408;13.060;2022-08-21T03:44:00;17.00;99.90
3017;DHT22;1518;52.408;13.060;2022-08-21T03:46:48;17.00;99.90
3017;DHT22;1518;52.408;13.060;2022-08-21T03:49:37;16.90;99.90
3017;DHT22;1518;52.408;13.060;2022-08-21T03:52:25;16.90;99.90
3017;DHT22;1518;52.408;13.060;2022-08-21T03:55:14;16.80;99.90
3017;DHT22;1518;52.408;13.060;2022-08-21T03:58:03;16.70;99.90
3017;DHT22;1518;52.408;13.060;2022-08-21T04:01:03;16.70;99.90
3017;DHT22;1518;52.408;13.060;2022-08-21T04:03:53;16.40;99.90
3017;DHT22;1518;52.408;13.060;2022-08-21T04:06:41;16.60;99.90
3017;DHT22;1518;52.408;13.060;2022-08-21T04:09:29;16.30;99.90
3017;DHT22;1518;52.408;13.060;2022-08-21T04:12:19;16.40;99.90
3017;DHT22;1518;52.408;13.060;2022-08-21T04:15:08;16.30;99.90
3017;DHT22;1518;52.408;13.060;2022-08-21T04:17:57;16.30;99.90
3017;DHT22;1518;52.408;13.060;2022-08-21T04:20:48;16.40;99.90
3017;DHT22;1518;52.408;13.060;2022-08-21T04:23:37;16.30;99.90
3017;DHT22;1518;52.408;13.060;2022-08-21T04:26:25;16.30;99.90
3017;DHT22;1518;52.408;13.060;2022-08-21T04:29:15;16.30;99.90
3017;DHT22;1518;52.408;13.060;2022-08-21T04:32:03;16.30;99.90
3017;DHT22;1518;52.408;13.060;2022-08-21T04:34:58;16.40;99.90
3017;DHT22;1518;52.408;13.060;2022-08-21T04:37:46;16.40;99.90
3017;DHT22;1518;52.408;13.060;2022-08-21T04:40:34;16.40;99.90
3017;DHT22;1518;52.408;13.060;2022-08-21T04:43:23;16.40;99.90
3017;DHT22;1518;52.408;13.060;2022-08-21T04:46:12;16.30;99.90
3017;DHT22;1518;52.408;13.060;2022-08-21T04:49:00;16.40;99.90
3017;DHT22;1518;52.408;13.060;2022-08-21T04:51:49;16.40;99.90
3017;DHT22;1518;52.408;13.060;2022-08-21T04:54:37;16.30;99.90
3017;DHT22;1518;52.408;13.060;2022-08-21T04:57:26;16.50;99.90
3017;DHT22;1518;52.408;13.060;2022-08-21T05:00:34;16.50;99.90
3017;DHT22;1518;52.408;13.060;2022-08-21T05:03:24;16.70;99.90
3017;DHT22;1518;52.408;13.060;2022-08-21T05:06:13;16.70;99.90
3017;DHT22;1518;52.408;13.060;2022-08-21T05:09:02;16.70;99.90
3017;DHT22;1518;52.408;13.060;2022-08-21T05:11:51;16.90;99.90
3017;DHT22;1518;52.408;13.060;2022-08-21T05:14:39;16.70;99.90
3017;DHT22;1518;52.408;13.060;2022-08-21T05:17:29;16.80;99.90
3017;DHT22;1518;52.408;13.060;2022-08-21T05:20:19;17.00;99.90
3017;DHT22;1518;52.408;13.060;2022-08-21T05:23:08;16.90;99.90
3017;DHT22;1518;52.408;13.060;2022-08-21T05:25:56;16.90;99.90
3017;DHT22;1518;52.408;13.060;2022-08-21T05:28:45;16.90;99.90
3017;DHT22;1518;52.408;13.060;2022-08-21T05:31:33;17.00;99.90
3017;DHT22;1518;52.408;13.060;2022-08-21T05:34:23;17.10;99.90
3017;DHT22;1518;52.408;13.060;2022-08-21T05:37:13;17.10;99.90
3017;DHT22;1518;52.408;13.060;2022-08-21T05:40:01;17.20;99.90
3017;DHT22;1518;52.408;13.060;2022-08-21T05:43:08;17.20;99.90
3017;DHT22;1518;52.408;13.060;2022-08-21T05:45:56;17.20;99.90
3017;DHT22;1518;52.408;13.060;2022-08-21T05:48:44;17.20;99.90
3017;DHT22;1518;52.408;13.060;2022-08-21T05:51:33;17.30;99.90
3017;DHT22;1518;52.408;13.060;2022-08-21T05:54:22;17.40;99.90
3017;DHT22;1518;52.408;13.060;2022-08-21T05:57:10;17.60;99.90
3017;DHT22;1518;52.408;13.060;2022-08-21T05:59:58;17.50;99.90
3017;DHT22;1518;52.408;13.060;2022-08-21T06:02:46;17.60;99.90
3017;DHT22;1518;52.408;13.060;2022-08-21T06:05:35;17.60;99.90
3017;DHT22;1518;52.408;13.060;2022-08-21T06:08:24;17.70;99.90
3017;DHT22;1518;52.408;13.060;2022-08-21T06:11:14;17.70;99.90
3017;DHT22;1518;52.408;13.060;2022-08-21T06:14:02;17.90;99.90
3017;DHT22;1518;52.408;13.060;2022-08-21T06:16:53;17.80;99.90
3017;DHT22;1518;52.408;13.060;2022-08-21T06:19:41;18.00;99.90
3017;DHT22;1518;52.408;13.060;2022-08-21T06:22:32;17.90;99.90
3017;DHT22;1518;52.408;13.060;2022-08-21T06:25:20;18.00;99.90
3017;DHT22;1518;52.408;13.060;2022-08-21T06:28:10;18.20;99.90
3017;DHT22;1518;52.408;13.060;2022-08-21T06:30:58;18.10;99.90
3017;DHT22;1518;52.408;13.060;2022-08-21T06:33:47;18.30;99.90
3017;DHT22;1518;52.408;13.060;2022-08-21T06:36:35;18.30;99.90
3017;DHT22;1518;52.408;13.060;2022-08-21T06:39:23;18.30;99.90
3017;DHT22;1518;52.408;13.060;2022-08-21T06:42:18;18.40;99.90
3017;DHT22;1518;52.408;13.060;2022-08-21T06:45:08;18.40;99.90
3017;DHT22;1518;52.408;13.060;2022-08-21T06:47:56;18.50;99.90
3017;DHT22;1518;52.408;13.060;2022-08-21T06:50:44;18.60;99.90
3017;DHT22;1518;52.408;13.060;2022-08-21T06:53:33;18.50;99.90
3017;DHT22;1518;52.408;13.060;2022-08-21T06:56:21;18.60;99.90
3017;DHT22;1518;52.408;13.060;2022-08-21T06:59:10;18.80;99.90
3017;DHT22;1518;52.408;13.060;2022-08-21T07:01:59;19.10;99.90
3017;DHT22;1518;52.408;13.060;2022-08-21T07:04:48;19.10;99.90
3017;DHT22;1518;52.408;13.060;2022-08-21T07:07:36;19.20;99.90
3017;DHT22;1518;52.408;13.060;2022-08-21T07:10:25;19.30;99.90
3017;DHT22;1518;52.408;13.060;2022-08-21T07:13:13;19.40;99.90
3017;DHT22;1518;52.408;13.060;2022-08-21T07:16:02;19.40;99.90
3017;DHT22;1518;52.408;13.060;2022-08-21T07:18:51;19.50;99.90
3017;DHT22;1518;52.408;13.060;2022-08-21T07:21:39;19.60;99.90
3017;DHT22;1518;52.408;13.060;2022-08-21T07:24:28;19.60;99.90
3017;DHT22;1518;52.408;13.060;2022-08-21T07:27:16;19.60;99.90
3017;DHT22;1518;52.408;13.060;2022-08-21T07:30:06;19.60;99.90
3017;DHT22;1518;52.408;13.060;2022-08-21T07:32:54;19.60;99.90
3017;DHT22;1518;52.408;13.060;2022-08-21T07:35:45;19.90;99.90
3017;DHT22;1518;52.408;13.060;2022-08-21T07:38:34;19.80;99.90
3017;DHT22;1518;52.408;13.060;2022-08-21T07:41:25;19.90;99.90
3017;DHT22;1518;52.408;13.060;2022-08-21T07:44:15;19.90;99.90
3017;DHT22;1518;52.408;13.060;2022-08-21T07:47:03;20.00;99.90
3017;DHT22;1518;52.408;13.060;2022-08-21T07:49:51;20.10;99.90
3017;DHT22;1518;52.408;13.060;2022-08-21T07:52:42;20.00;99.90
3017;DHT22;1518;52.408;13.060;2022-08-21T07:55:30;20.20;99.90
3017;DHT22;1518;52.408;13.060;2022-08-21T07:58:18;20.20;99.90
3017;DHT22;1518;52.408;13.060;2022-08-21T08:01:06;20.40;99.90
3017;DHT22;1518;52.408;13.060;2022-08-21T08:03:54;20.20;99.90
3017;DHT22;1518;52.408;13.060;2022-08-21T08:06:43;20.30;99.90
3017;DHT22;1518;52.408;13.060;2022-08-21T08:09:32;20.30;99.90
3017;DHT22;1518;52.408;13.060;2022-08-21T08:12:20;20.40;99.90
3017;DHT22;1518;52.408;13.060;2022-08-21T08:15:11;20.50;99.90
3017;DHT22;1518;52.408;13.060;2022-08-21T08:18:00;20.40;99.90
3017;DHT22;1518;52.408;13.060;2022-08-21T08:20:48;20.30;99.90
3017;DHT22;1518;52.408;13.060;2022-08-21T08:23:36;20.30;99.90
3017;DHT22;1518;52.408;13.060;2022-08-21T08:26:27;20.50;99.90
3017;DHT22;1518;52.408;13.060;2022-08-21T08:29:15;20.60;99.90
3017;DHT22;1518;52.408;13.060;2022-08-21T08:32:04;20.60;99.90
3017;DHT22;1518;52.408;13.060;2022-08-21T08:34:54;20.70;99.90
3017;DHT22;1518;52.408;13.060;2022-08-21T08:37:42;20.90;99.90
3017;DHT22;1518;52.408;13.060;2022-08-21T08:40:43;21.30;99.90
3017;DHT22;1518;52.408;13.060;2022-08-21T08:43:34;21.70;99.90
3017;DHT22;1518;52.408;13.060;2022-08-21T08:46:31;21.80;99.90
3017;DHT22;1518;52.408;13.060;2022-08-21T08:49:26;21.90;99.90
3017;DHT22;1518;52.408;13.060;2022-08-21T08:52:20;22.20;99.90
3017;DHT22;1518;52.408;13.060;2022-08-21T08:55:12;22.50;99.90
3017;DHT22;1518;52.408;13.060;2022-08-21T08:58:01;22.50;99.90
3017;DHT22;1518;52.408;13.060;2022-08-21T09:00:53;22.50;99.90
3017;DHT22;1518;52.408;13.060;2022-08-21T09:03:42;22.60;99.90
3017;DHT22;1518;52.408;13.060;2022-08-21T09:06:41;22.70;99.90
3017;DHT22;1518;52.408;13.060;2022-08-21T09:09:41;22.70;99.90
3017;DHT22;1518;52.408;13.060;2022-08-21T09:12:38;22.70;99.90
3017;DHT22;1518;52.408;13.060;2022-08-21T09:15:30;22.70;99.90
3017;DHT22;1518;52.408;13.060;2022-08-21T09:18:30;22.80;99.90
3017;DHT22;1518;52.408;13.060;2022-08-21T09:21:28;22.90;99.90
3017;DHT22;1518;52.408;13.060;2022-08-21T09:24:29;22.90;99.90
3017;DHT22;1518;52.408;13.060;2022-08-21T09:27:19;23.00;99.90
3017;DHT22;1518;52.408;13.060;2022-08-21T09:30:09;23.30;99.90
3017;DHT22;1518;52.408;13.060;2022-08-21T09:32:58;23.40;99.90
3017;DHT22;1518;52.408;13.060;2022-08-21T09:35:53;23.60;99.90
3017;DHT22;1518;52.408;13.060;2022-08-21T09:38:52;23.80;99.90
3017;DHT22;1518;52.408;13.060;2022-08-21T09:41:41;23.80;99.90
3017;DHT22;1518;52.408;13.060;2022-08-21T09:44:31;23.70;99.90
3017;DHT22;1518;52.408;13.060;2022-08-21T09:47:20;23.80;99.90
3017;DHT22;1518;52.408;13.060;2022-08-21T09:50:15;24.00;99.90
3017;DHT22;1518;52.408;13.060;2022-08-21T09:53:05;24.20;99.90
3017;DHT22;1518;52.408;13.060;2022-08-21T09:56:04;24.40;99.90
3017;DHT22;1518;52.408;13.060;2022-08-21T09:59:18;24.50;99.90
3017;DHT22;1518;52.408;13.060;2022-08-21T10:02:23;24.40;99.90
3017;DHT22;1518;52.408;13.060;2022-08-21T10:05:18;24.20;99.90
3017;DHT22;1518;52.408;13.060;2022-08-21T10:08:18;23.90;99.90
3017;DHT22;1518;52.408;13.060;2022-08-21T10:11:09;23.80;99.90
3017;DHT22;1518;52.408;13.060;2022-08-21T10:14:01;24.00;99.90
3017;DHT22;1518;52.408;13.060;2022-08-21T10:17:01;24.10;99.90
3017;DHT22;1518;52.408;13.060;2022-08-21T10:19:59;24.30;99.90
3017;DHT22;1518;52.408;13.060;2022-08-21T10:23:02;24.30;99.90
3017;DHT22;1518;52.408;13.060;2022-08-21T10:25:58;24.00;99.90
3017;DHT22;1518;52.408;13.060;2022-08-21T10:29:06;24.00;99.90
3017;DHT22;1518;52.408;13.060;2022-08-21T10:32:01;24.10;99.90
3017;DHT22;1518;52.408;13.060;2022-08-21T10:35:14;24.00;99.90
3017;DHT22;1518;52.408;13.060;2022-08-21T10:42:14;23.80;99.90
3017;DHT22;1518;52.408;13.060;2022-08-21T10:45:14;23.70;99.90
3017;DHT22;1518;52.408;13.060;2022-08-21T10:48:05;23.80;99.90
3017;DHT22;1518;52.408;13.060;2022-08-21T10:50:57;24.00;99.90
3017;DHT22;1518;52.408;13.060;2022-08-21T10:53:55;24.30;99.90
3017;DHT22;1518;52.408;13.060;2022-08-21T10:56:47;24.40;99.90
3017;DHT22;1518;52.408;13.060;2022-08-21T10:59:43;24.20;99.90
3017;DHT22;1518;52.408;13.060;2022-08-21T11:02:38;24.20;99.90
3017;DHT22;1518;52.408;13.060;2022-08-21T11:05:31;24.20;99.90
3017;DHT22;1518;52.408;13.060;2022-08-21T11:08:24;24.10;99.90
3017;DHT22;1518;52.408;13.060;2022-08-21T11:11:18;24.20;99.90
3017;DHT22;1518;52.408;13.060;2022-08-21T11:14:12;24.30;99.10
3017;DHT22;1518;52.408;13.060;2022-08-21T11:17:07;24.20;98.80
3017;DHT22;1518;52.408;13.060;2022-08-21T11:20:03;24.00;98.80
3017;DHT22;1518;52.408;13.060;2022-08-21T11:22:58;24.00;99.50
3017;DHT22;1518;52.408;13.060;2022-08-21T11:25:53;24.50;99.70
3017;DHT22;1518;52.408;13.060;2022-08-21T11:28:46;24.50;99.70
3017;DHT22;1518;52.408;13.060;2022-08-21T11:31:46;24.60;99.90
3017;DHT22;1518;52.408;13.060;2022-08-21T11:34:47;24.60;99.20
3017;DHT22;1518;52.408;13.060;2022-08-21T11:37:53;24.40;98.60
3017;DHT22;1518;52.408;13.060;2022-08-21T11:41:18;24.20;98.90
3017;DHT22;1518;52.408;13.060;2022-08-21T11:44:17;24.20;99.00
3017;DHT22;1518;52.408;13.060;2022-08-21T11:47:11;24.20;99.20
3017;DHT22;1518;52.408;13.060;2022-08-21T11:50:14;24.40;99.90
3017;DHT22;1518;52.408;13.060;2022-08-21T11:53:26;24.70;99.90
3017;DHT22;1518;52.408;13.060;2022-08-21T11:56:19;24.60;99.90
3017;DHT22;1518;52.408;13.060;2022-08-21T11:59:12;24.70;99.80
3017;DHT22;1518;52.408;13.060;2022-08-21T12:02:01;24.80;99.60
3017;DHT22;1518;52.408;13.060;2022-08-21T12:04:53;24.90;99.30
3017;DHT22;1518;52.408;13.060;2022-08-21T12:07:45;24.90;98.30
3017;DHT22;1518;52.408;13.060;2022-08-21T12:10:36;24.90;98.00
3017;DHT22;1518;52.408;13.060;2022-08-21T12:13:30;24.70;97.90
3017;DHT22;1518;52.408;13.060;2022-08-21T12:16:31;24.40;98.40
3017;DHT22;1518;52.408;13.060;2022-08-21T12:19:30;24.50;98.70
3017;DHT22;1518;52.408;13.060;2022-08-21T12:22:18;24.40;98.50
3017;DHT22;1518;52.408;13.060;2022-08-21T12:25:11;24.60;97.80
3017;DHT22;1518;52.408;13.060;2022-08-21T12:28:09;24.60;97.80
3017;DHT22;1518;52.408;13.060;2022-08-21T12:30:58;24.70;98.10
3017;DHT22;1518;52.408;13.060;2022-08-21T12:33:52;24.90;97.50
3017;DHT22;1518;52.408;13.060;2022-08-21T12:36:44;25.10;97.80
3017;DHT22;1518;52.408;13.060;2022-08-21T12:39:36;25.30;96.90
3017;DHT22;1518;52.408;13.060;2022-08-21T12:42:33;25.80;97.20
3017;DHT22;1518;52.408;13.060;2022-08-21T12:45:29;26.10;96.30
3017;DHT22;1518;52.408;13.060;2022-08-21T12:48:21;25.60;95.40
3017;DHT22;1518;52.408;13.060;2022-08-21T12:51:13;26.30;94.80
3017;DHT22;1518;52.408;13.060;2022-08-21T12:54:01;26.30;93.90
3017;DHT22;1518;52.408;13.060;2022-08-21T12:56:56;26.30;93.40
3017;DHT22;1518;52.408;13.060;2022-08-21T12:59:52;26.70;93.00
3017;DHT22;1518;52.408;13.060;2022-08-21T13:02:43;27.20;92.00
3017;DHT22;1518;52.408;13.060;2022-08-21T13:05:34;27.70;91.70
3017;DHT22;1518;52.408;13.060;2022-08-21T13:08:24;28.20;91.20
3017;DHT22;1518;52.408;13.060;2022-08-21T13:11:16;29.60;89.40
3017;DHT22;1518;52.408;13.060;2022-08-21T13:14:25;30.70;86.00
3017;DHT22;1518;52.408;13.060;2022-08-21T13:17:19;31.80;80.90
3017;DHT22;1518;52.408;13.060;2022-08-21T13:20:20;33.00;77.00
3017;DHT22;1518;52.408;13.060;2022-08-21T13:23:20;32.40;75.30
3017;DHT22;1518;52.408;13.060;2022-08-21T13:26:13;30.20;76.20
3017;DHT22;1518;52.408;13.060;2022-08-21T13:29:07;29.90;77.30
3017;DHT22;1518;52.408;13.060;2022-08-21T13:32:03;28.70;79.90
3017;DHT22;1518;52.408;13.060;2022-08-21T13:34:54;27.90;83.10
3017;DHT22;1518;52.408;13.060;2022-08-21T13:37:46;27.20;84.90
3017;DHT22;1518;52.408;13.060;2022-08-21T13:40:41;26.50;86.30
3017;DHT22;1518;52.408;13.060;2022-08-21T13:43:33;26.00;88.10
3017;DHT22;1518;52.408;13.060;2022-08-21T13:46:22;25.60;89.90
3017;DHT22;1518;52.408;13.060;2022-08-21T13:49:15;25.40;90.30
3017;DHT22;1518;52.408;13.060;2022-08-21T13:52:14;25.20;90.80
3017;DHT22;1518;52.408;13.060;2022-08-21T13:55:11;25.30;91.00
3017;DHT22;1518;52.408;13.060;2022-08-21T13:58:01;25.30;91.30
3017;DHT22;1518;52.408;13.060;2022-08-21T14:00:50;25.50;91.00
3017;DHT22;1518;52.408;13.060;2022-08-21T14:03:43;25.70;90.90
3017;DHT22;1518;52.408;13.060;2022-08-21T14:06:36;25.90;91.00
3017;DHT22;1518;52.408;13.060;2022-08-21T14:09:31;26.00;90.80
3017;DHT22;1518;52.408;13.060;2022-08-21T14:12:26;25.80;90.60
3017;DHT22;1518;52.408;13.060;2022-08-21T14:15:18;25.70;91.10
3017;DHT22;1518;52.408;13.060;2022-08-21T14:18:14;25.50;91.20
3017;DHT22;1518;52.408;13.060;2022-08-21T14:21:05;25.50;91.30
3017;DHT22;1518;52.408;13.060;2022-08-21T14:24:01;25.40;91.70
3017;DHT22;1518;52.408;13.060;2022-08-21T14:26:54;25.60;92.00
3017;DHT22;1518;52.408;13.060;2022-08-21T14:29:43;25.70;91.60
3017;DHT22;1518;52.408;13.060;2022-08-21T14:32:38;25.70;91.50
3017;DHT22;1518;52.408;13.060;2022-08-21T14:35:31;25.60;91.60
3017;DHT22;1518;52.408;13.060;2022-08-21T14:38:22;25.70;92.20
3017;DHT22;1518;52.408;13.060;2022-08-21T14:41:16;25.90;92.50
3017;DHT22;1518;52.408;13.060;2022-08-21T14:44:07;26.00;91.90
3017;DHT22;1518;52.408;13.060;2022-08-21T14:46:55;26.00;91.70
3017;DHT22;1518;52.408;13.060;2022-08-21T14:49:44;25.80;91.70
3017;DHT22;1518;52.408;13.060;2022-08-21T14:52:32;25.80;92.10
3017;DHT22;1518;52.408;13.060;2022-08-21T14:55:20;26.00;91.90
3017;DHT22;1518;52.408;13.060;2022-08-21T14:58:08;26.00;91.60
3017;DHT22;1518;52.408;13.060;2022-08-21T15:00:58;26.20;92.20
3017;DHT22;1518;52.408;13.060;2022-08-21T15:03:50;26.50;91.50
3017;DHT22;1518;52.408;13.060;2022-08-21T15:06:39;26.90;91.50
3017;DHT22;1518;52.408;13.060;2022-08-21T15:09:27;27.10;90.90
3017;DHT22;1518;52.408;13.060;2022-08-21T15:12:16;27.20;90.20
3017;DHT22;1518;52.408;13.060;2022-08-21T15:15:05;27.30;90.30
3017;DHT22;1518;52.408;13.060;2022-08-21T15:17:55;27.30;89.60
3017;DHT22;1518;52.408;13.060;2022-08-21T15:20:43;27.30;89.70
3017;DHT22;1518;52.408;13.060;2022-08-21T15:23:32;28.10;90.00
3017;DHT22;1518;52.408;13.060;2022-08-21T15:26:21;28.70;86.60
3017;DHT22;1518;52.408;13.060;2022-08-21T15:29:10;28.60;85.40
3017;DHT22;1518;52.408;13.060;2022-08-21T15:32:00;28.40;84.70
3017;DHT22;1518;52.408;13.060;2022-08-21T15:34:50;28.10;86.10
3017;DHT22;1518;52.408;13.060;2022-08-21T15:37:38;27.90;86.80
3017;DHT22;1518;52.408;13.060;2022-08-21T15:40:27;27.70;88.00
3017;DHT22;1518;52.408;13.060;2022-08-21T15:43:22;27.30;89.20
3017;DHT22;1518;52.408;13.060;2022-08-21T15:46:17;27.40;89.80
3017;DHT22;1518;52.408;13.060;2022-08-21T15:49:06;27.60;89.00
3017;DHT22;1518;52.408;13.060;2022-08-21T15:51:55;27.70;89.00
3017;DHT22;1518;52.408;13.060;2022-08-21T15:54:44;28.10;87.40
3017;DHT22;1518;52.408;13.060;2022-08-21T15:57:34;28.90;86.30
3017;DHT22;1518;52.408;13.060;2022-08-21T16:00:23;29.40;84.40
3017;DHT22;1518;52.408;13.060;2022-08-21T16:03:15;30.20;82.30
3017;DHT22;1518;52.408;13.060;2022-08-21T16:06:03;31.60;79.10
3017;DHT22;1518;52.408;13.060;2022-08-21T16:08:53;32.80;74.20
3017;DHT22;1518;52.408;13.060;2022-08-21T16:11:42;32.80;74.40
3017;DHT22;1518;52.408;13.060;2022-08-21T16:14:31;32.40;73.90
3017;DHT22;1518;52.408;13.060;2022-08-21T16:17:21;32.10;72.70
3017;DHT22;1518;52.408;13.060;2022-08-21T16:20:13;32.00;73.60
3017;DHT22;1518;52.408;13.060;2022-08-21T16:23:01;31.80;73.20
3017;DHT22;1518;52.408;13.060;2022-08-21T16:25:51;33.40;70.60
3017;DHT22;1518;52.408;13.060;2022-08-21T16:28:41;33.40;71.90
3017;DHT22;1518;52.408;13.060;2022-08-21T16:31:30;36.10;65.90
3017;DHT22;1518;52.408;13.060;2022-08-21T16:34:18;35.90;65.00
3017;DHT22;1518;52.408;13.060;2022-08-21T16:37:07;36.00;63.30
3017;DHT22;1518;52.408;13.060;2022-08-21T16:39:55;36.10;61.90
3017;DHT22;1518;52.408;13.060;2022-08-21T16:42:45;36.60;61.30
3017;DHT22;1518;52.408;13.060;2022-08-21T16:45:33;37.10;59.20
3017;DHT22;1518;52.408;13.060;2022-08-21T16:48:22;37.60;58.00
3017;DHT22;1518;52.408;13.060;2022-08-21T16:51:11;38.00;57.00
3017;DHT22;1518;52.408;13.060;2022-08-21T16:53:59;38.00;56.10
3017;DHT22;1518;52.408;13.060;2022-08-21T16:56:48;38.10;55.60
3017;DHT22;1518;52.408;13.060;2022-08-21T16:59:41;38.50;54.30
3017;DHT22;1518;52.408;13.060;2022-08-21T17:02:33;38.80;54.00
3017;DHT22;1518;52.408;13.060;2022-08-21T17:05:22;38.80;53.40
3017;DHT22;1518;52.408;13.060;2022-08-21T17:08:10;38.30;53.40
3017;DHT22;1518;52.408;13.060;2022-08-21T17:10:59;37.60;53.50
3017;DHT22;1518;52.408;13.060;2022-08-21T17:13:48;36.10;54.50
3017;DHT22;1518;52.408;13.060;2022-08-21T17:16:40;35.60;56.30
3017;DHT22;1518;52.408;13.060;2022-08-21T17:19:29;36.30;56.00
3017;DHT22;1518;52.408;13.060;2022-08-21T17:22:19;36.90;54.80
3017;DHT22;1518;52.408;13.060;2022-08-21T17:25:08;37.40;54.50
3017;DHT22;1518;52.408;13.060;2022-08-21T17:27:57;37.40;54.60
3017;DHT22;1518;52.408;13.060;2022-08-21T17:30:45;36.70;54.20
3017;DHT22;1518;52.408;13.060;2022-08-21T17:33:36;35.30;55.60
3017;DHT22;1518;52.408;13.060;2022-08-21T17:36:27;32.80;58.10
3017;DHT22;1518;52.408;13.060;2022-08-21T17:39:16;32.30;59.10
3017;DHT22;1518;52.408;13.060;2022-08-21T17:42:13;31.00;62.10
3017;DHT22;1518;52.408;13.060;2022-08-21T17:45:02;29.50;65.00
3017;DHT22;1518;52.408;13.060;2022-08-21T17:47:50;28.60;67.10
3017;DHT22;1518;52.408;13.060;2022-08-21T17:50:40;27.80;68.80
3017;DHT22;1518;52.408;13.060;2022-08-21T17:53:28;27.10;71.40
3017;DHT22;1518;52.408;13.060;2022-08-21T17:56:17;26.50;73.40
3017;DHT22;1518;52.408;13.060;2022-08-21T17:59:06;26.10;75.30
3017;DHT22;1518;52.408;13.060;2022-08-21T18:01:55;25.70;76.80
3017;DHT22;1518;52.408;13.060;2022-08-21T18:04:47;25.30;78.90
3017;DHT22;1518;52.408;13.060;2022-08-21T18:07:38;25.00;79.80
3017;DHT22;1518;52.408;13.060;2022-08-21T18:10:27;24.60;80.80
3017;DHT22;1518;52.408;13.060;2022-08-21T18:13:18;24.30;82.80
3017;DHT22;1518;52.408;13.060;2022-08-21T18:16:07;24.00;84.00
3017;DHT22;1518;52.408;13.060;2022-08-21T18:18:58;23.70;86.00
3017;DHT22;1518;52.408;13.060;2022-08-21T18:21:46;23.40;87.80